Patuxent — WDB3971 — position and weather

sailwx.info

Track history (hours):
 
Tides and Currents Weather Stations Pressure Air Temp Water Temp Dewpoint Dewpoint Depression Visibility Wind Speed Wind Dir Waves Ship Positions

Patuxent

Owner: ASSOCIATION OF MARYLAND PILOTS, BALTIMORE, MD. More information available from US FCC via Universal Licensing System and Coast Guard Vessel Documentation Center.

Last reported at 2018-Jan-23 19:29 UTC. Time now 2018-Jan-23 19:38 UTC.
Position N 36°54' W 076°05'.

Length 17 m; draft 5 m.

Type: Pilot. MMSI: 366893270.

Date/timePositionNaut miles runAvg speedWind from/ knotsBaromVisibWave heightAir tempDewpointWater temp
2018-Jan-23 19:29N 36°54' W 076°05'0 0.0
2018-Jan-23 19:00N 36°54' W 076°05'0 0.0
2018-Jan-23 18:30N 36°54' W 076°05'0 0.0
2018-Jan-23 18:00N 36°54' W 076°05'0 0.0
2018-Jan-23 17:29N 36°54' W 076°05'0 0.0
2018-Jan-23 16:58N 36°54' W 076°05'0 0.0
2018-Jan-23 16:30N 36°54' W 076°05'0 0.0
2018-Jan-23 16:00N 36°54' W 076°05'0 0.0
2018-Jan-23 15:30N 36°54' W 076°05'0 0.0
2018-Jan-23 15:00N 36°54' W 076°05'0 0.0
2018-Jan-23 14:30N 36°54' W 076°05'0 0.0
2018-Jan-23 13:59N 36°54' W 076°05'0 0.0
2018-Jan-23 13:30N 36°54' W 076°05'0 0.0
2018-Jan-23 09:11N 36°54' W 076°05'315.0
2018-Jan-23 08:59N 36°56' W 076°02'3 5.8
2018-Jan-23 08:26N 36°54' W 076°06'0 0.0
2018-Jan-22 22:09N 36°54' W 076°05'0 0.0
2018-Jan-22 21:58N 36°54' W 076°05'0 0.0
2018-Jan-22 21:30N 36°54' W 076°05'0 0.0
2018-Jan-22 21:01N 36°54' W 076°05'0 0.0
2018-Jan-22 20:30N 36°54' W 076°05'0 0.0
2018-Jan-22 20:00N 36°54' W 076°05'0 0.0
2018-Jan-22 19:30N 36°54' W 076°05'0 0.0
2018-Jan-22 18:41N 36°54' W 076°05'0 0.1
2018-Jan-22 18:14N 36°54' W 076°05'518.0
2018-Jan-22 17:57N 36°56' W 075°59'3 6.8
2018-Jan-22 17:31N 36°56' W 076°03'3 5.4
2018-Jan-22 17:00N 36°54' W 076°05'0 0.0
2018-Jan-22 16:24N 36°54' W 076°05'0 0.0
2018-Jan-22 15:58N 36°54' W 076°05'0 0.0
2018-Jan-22 15:30N 36°54' W 076°05'3 6.0
2018-Jan-22 15:00N 36°56' W 076°03'1 1.5
2018-Jan-22 14:30N 36°57' W 076°02'1 1.4
2018-Jan-22 14:00N 36°57' W 076°01'4 8.7
2018-Jan-22 13:30N 36°54' W 076°06'0 0.3
2018-Jan-22 13:00N 36°54' W 076°05'0 0.0
2018-Jan-22 12:30N 36°54' W 076°05'1 2.8
2018-Jan-22 11:59N 36°56' W 076°04'2 3.1
2018-Jan-22 11:20N 36°56' W 076°02'3 0.4
2018-Jan-22 02:37N 36°54' W 076°05'213.8
2018-Jan-22 02:29N 36°56' W 076°04'2 0.4
2018-Jan-21 21:36N 36°54' W 076°05'0 0.1
2018-Jan-21 21:30N 36°54' W 076°05'0 0.0
2018-Jan-21 20:28N 36°54' W 076°05'715.1
2018-Jan-21 19:58N 36°56' W 075°56'715.2
2018-Jan-21 19:29N 36°55' W 076°05'1 0.2
2018-Jan-21 14:01N 36°54' W 076°05'0 6.7
2018-Jan-21 14:00N 36°54' W 076°05'5 9.5
2018-Jan-21 13:30N 36°58' W 076°01'5 0.7
2018-Jan-21 06:11N 36°54' W 076°05'316.7
2018-Jan-21 06:00N 36°56' W 076°02'1 0.9
2018-Jan-21 05:27N 36°57' W 076°02'3 3.4
2018-Jan-21 04:25N 36°54' W 076°05'3 3.7
2018-Jan-21 03:33N 36°56' W 076°02'121.5
2018-Jan-21 03:30N 36°56' W 076°04'2 0.8
2018-Jan-21 01:00N 36°54' W 076°05'3 6.5
2018-Jan-21 00:30N 36°57' W 076°04'3 0.1
2018-Jan-19 16:08N 36°54' W 076°05'0 0.0
2018-Jan-19 15:57N 36°54' W 076°05'5 9.7
2018-Jan-19 15:26N 36°57' W 075°60'2 3.4
2018-Jan-19 14:56N 36°56' W 076°02'3 7.2
2018-Jan-19 14:28N 36°54' W 076°05'0 0.0
2018-Jan-19 14:00N 36°54' W 076°05'0 0.0
2018-Jan-19 13:30N 36°54' W 076°05'0 0.0
2018-Jan-19 13:00N 36°54' W 076°05'0 0.0
2018-Jan-19 12:30N 36°54' W 076°05'4 0.2
2018-Jan-18 15:56N 36°57' W 076°02'4 9.0
2018-Jan-18 15:30N 36°55' W 076°05'611.5
2018-Jan-18 15:00N 36°58' W 075°60'611.5
2018-Jan-18 14:30N 36°54' W 076°05'0 0.0
2018-Jan-18 14:00N 36°54' W 076°05'0 0.0
2018-Jan-18 13:30N 36°54' W 076°05'0 0.0
2018-Jan-18 13:00N 36°54' W 076°05'0 0.0
2018-Jan-18 12:30N 36°54' W 076°05'0 0.0
2018-Jan-18 09:34N 36°54' W 076°05'0 0.0
2018-Jan-18 09:15N 36°54' W 076°05'0 0.0
2018-Jan-18 08:58N 36°54' W 076°05'0 0.0
2018-Jan-18 08:29N 36°54' W 076°05'0 0.0
2018-Jan-18 08:00N 36°54' W 076°05'0 0.0
2018-Jan-18 07:29N 36°54' W 076°05'0 0.0
2018-Jan-18 07:00N 36°54' W 076°05'0 0.0
2018-Jan-18 06:28N 36°54' W 076°05'0 0.0
2018-Jan-18 05:58N 36°54' W 076°05'0 0.0
2018-Jan-18 05:22N 36°54' W 076°05'0 0.0
2018-Jan-18 04:58N 36°54' W 076°05'0 0.0
2018-Jan-18 04:28N 36°54' W 076°05'0 0.0
2018-Jan-18 03:49N 36°54' W 076°05'  
Track history (hours):
 
Tides and Currents Weather Stations Pressure Air Temp Water Temp Dewpoint Dewpoint Depression Visibility Wind Speed Wind Dir Waves Ship Positions

Patuxent

Owner: ASSOCIATION OF MARYLAND PILOTS, BALTIMORE, MD. More information available from US FCC via Universal Licensing System and Coast Guard Vessel Documentation Center.

Last reported at 2018-Jan-23 19:29 UTC. Time now 2018-Jan-23 19:38 UTC.
Position N 36°54' W 076°05'.

Length 17 m; draft 5 m.

Type: Pilot. MMSI: 366893270.

Date/timePositionNaut miles runAvg speedWind from/ knotsBaromVisibWave heightAir tempDewpointWater temp
2018-Jan-23 19:29N 36°54' W 076°05'0 0.0
2018-Jan-23 19:00N 36°54' W 076°05'0 0.0
2018-Jan-23 18:30N 36°54' W 076°05'0 0.0
2018-Jan-23 18:00N 36°54' W 076°05'0 0.0
2018-Jan-23 17:29N 36°54' W 076°05'0 0.0
2018-Jan-23 16:58N 36°54' W 076°05'0 0.0
2018-Jan-23 16:30N 36°54' W 076°05'0 0.0
2018-Jan-23 16:00N 36°54' W 076°05'0 0.0
2018-Jan-23 15:30N 36°54' W 076°05'0 0.0
2018-Jan-23 15:00N 36°54' W 076°05'0 0.0
2018-Jan-23 14:30N 36°54' W 076°05'0 0.0
2018-Jan-23 13:59N 36°54' W 076°05'0 0.0
2018-Jan-23 13:30N 36°54' W 076°05'0 0.0
2018-Jan-23 09:11N 36°54' W 076°05'315.0
2018-Jan-23 08:59N 36°56' W 076°02'3 5.8
2018-Jan-23 08:26N 36°54' W 076°06'0 0.0
2018-Jan-22 22:09N 36°54' W 076°05'0 0.0
2018-Jan-22 21:58N 36°54' W 076°05'0 0.0
2018-Jan-22 21:30N 36°54' W 076°05'0 0.0
2018-Jan-22 21:01N 36°54' W 076°05'0 0.0
2018-Jan-22 20:30N 36°54' W 076°05'0 0.0
2018-Jan-22 20:00N 36°54' W 076°05'0 0.0
2018-Jan-22 19:30N 36°54' W 076°05'0 0.0
2018-Jan-22 18:41N 36°54' W 076°05'0 0.1
2018-Jan-22 18:14N 36°54' W 076°05'518.0
2018-Jan-22 17:57N 36°56' W 075°59'3 6.8
2018-Jan-22 17:31N 36°56' W 076°03'3 5.4
2018-Jan-22 17:00N 36°54' W 076°05'0 0.0
2018-Jan-22 16:24N 36°54' W 076°05'0 0.0
2018-Jan-22 15:58N 36°54' W 076°05'0 0.0
2018-Jan-22 15:30N 36°54' W 076°05'3 6.0
2018-Jan-22 15:00N 36°56' W 076°03'1 1.5
2018-Jan-22 14:30N 36°57' W 076°02'1 1.4
2018-Jan-22 14:00N 36°57' W 076°01'4 8.7
2018-Jan-22 13:30N 36°54' W 076°06'0 0.3
2018-Jan-22 13:00N 36°54' W 076°05'0 0.0
2018-Jan-22 12:30N 36°54' W 076°05'1 2.8
2018-Jan-22 11:59N 36°56' W 076°04'2 3.1
2018-Jan-22 11:20N 36°56' W 076°02'3 0.4
2018-Jan-22 02:37N 36°54' W 076°05'213.8
2018-Jan-22 02:29N 36°56' W 076°04'2 0.4
2018-Jan-21 21:36N 36°54' W 076°05'0 0.1
2018-Jan-21 21:30N 36°54' W 076°05'0 0.0
2018-Jan-21 20:28N 36°54' W 076°05'715.1
2018-Jan-21 19:58N 36°56' W 075°56'715.2
2018-Jan-21 19:29N 36°55' W 076°05'1 0.2
2018-Jan-21 14:01N 36°54' W 076°05'0 6.7
2018-Jan-21 14:00N 36°54' W 076°05'5 9.5
2018-Jan-21 13:30N 36°58' W 076°01'5 0.7
2018-Jan-21 06:11N 36°54' W 076°05'316.7
2018-Jan-21 06:00N 36°56' W 076°02'1 0.9
2018-Jan-21 05:27N 36°57' W 076°02'3 3.4
2018-Jan-21 04:25N 36°54' W 076°05'3 3.7
2018-Jan-21 03:33N 36°56' W 076°02'121.5
2018-Jan-21 03:30N 36°56' W 076°04'2 0.8
2018-Jan-21 01:00N 36°54' W 076°05'3 6.5
2018-Jan-21 00:30N 36°57' W 076°04'3 0.1
2018-Jan-19 16:08N 36°54' W 076°05'0 0.0
2018-Jan-19 15:57N 36°54' W 076°05'5 9.7
2018-Jan-19 15:26N 36°57' W 075°60'2 3.4
2018-Jan-19 14:56N 36°56' W 076°02'3 7.2
2018-Jan-19 14:28N 36°54' W 076°05'0 0.0
2018-Jan-19 14:00N 36°54' W 076°05'0 0.0
2018-Jan-19 13:30N 36°54' W 076°05'0 0.0
2018-Jan-19 13:00N 36°54' W 076°05'0 0.0
2018-Jan-19 12:30N 36°54' W 076°05'4 0.2
2018-Jan-18 15:56N 36°57' W 076°02'4 9.0
2018-Jan-18 15:30N 36°55' W 076°05'611.5
2018-Jan-18 15:00N 36°58' W 075°60'611.5
2018-Jan-18 14:30N 36°54' W 076°05'0 0.0
2018-Jan-18 14:00N 36°54' W 076°05'0 0.0
2018-Jan-18 13:30N 36°54' W 076°05'0 0.0
2018-Jan-18 13:00N 36°54' W 076°05'0 0.0
2018-Jan-18 12:30N 36°54' W 076°05'0 0.0
2018-Jan-18 09:34N 36°54' W 076°05'0 0.0
2018-Jan-18 09:15N 36°54' W 076°05'0 0.0
2018-Jan-18 08:58N 36°54' W 076°05'0 0.0
2018-Jan-18 08:29N 36°54' W 076°05'0 0.0
2018-Jan-18 08:00N 36°54' W 076°05'0 0.0
2018-Jan-18 07:29N 36°54' W 076°05'0 0.0
2018-Jan-18 07:00N 36°54' W 076°05'0 0.0
2018-Jan-18 06:28N 36°54' W 076°05'0 0.0
2018-Jan-18 05:58N 36°54' W 076°05'0 0.0
2018-Jan-18 05:22N 36°54' W 076°05'0 0.0
2018-Jan-18 04:58N 36°54' W 076°05'0 0.0
2018-Jan-18 04:28N 36°54' W 076°05'0 0.0
2018-Jan-18 03:49N 36°54' W 076°05'  

Dump ship's entire track history